Time;durP1;ratioP1;P1;durP2;ratioP2;P2;SDS_P1;SDS_P2;PMS_P1;PMS_P2;Temp;Humidity;BMP_temperature;BMP_pressure;BME280_temperature;BME280_humidity;BME280_pressure;Samples;Min_cycle;Max_cycle;Signal;HPM_P1;HPM_P2
2021/06/25 05:42:23;;;;;;;;;;;;;;;;;;;;;
2021/06/25 05:45:02;;;;;;;1.47;1.27;;;16.80;99.90;;;;;;5984323;24;20488;-84
2021/06/25 05:47:41;;;;;;;1.67;1.10;;;16.80;99.90;;;;;;6075438;23;20418;-85
2021/06/25 05:53:30;;;;;;;1.20;1.10;;;16.80;99.90;;;;;;6076127;23;20488;-86
2021/06/25 05:56:08;;;;;;;1.47;1.10;;;16.80;99.90;;;;;;6076921;23;20885;-86
2021/06/25 05:58:42;;;;;;;1.33;1.23;;;16.80;99.90;;;;;;6077254;23;20400;-86
2021/06/25 08:09:49;;;;;;;4.70;4.07;;;17.80;99.90;;;;;;6101203;23;20409;-86
2021/06/25 08:16:34;;;;;;;2.80;2.60;;;18.00;99.90;;;;;;6060350;23;20415;-85
2021/06/25 08:19:16;;;;;;;4.67;4.27;;;18.00;99.90;;;;;;6103272;23;20439;-87
2021/06/25 08:21:43;;;;;;;3.07;2.83;;;18.10;99.90;;;;;;6108133;23;20441;-85
2021/06/25 08:24:10;;;;;;;3.60;3.30;;;18.10;99.90;;;;;;6108475;23;20443;-86
2021/06/25 08:30:24;;;;;;;3.77;3.47;;;18.20;99.90;;;;;;6098655;23;20431;-87
2021/06/25 08:36:58;;;;;;;4.53;3.60;;;18.30;99.90;;;;;;6004405;23;20421;-86
2021/06/25 08:39:45;;;;;;;;;;;;;;;;;;;;;
2021/06/25 08:42:21;;;;;;;3.20;2.90;;;18.40;99.90;;;;;;6099721;23;20468;-86
2021/06/25 08:44:58;;;;;;;3.60;3.30;;;18.40;99.90;;;;;;6107069;23;20474;-84
2021/06/25 08:47:37;;;;;;;3.10;2.63;;;18.40;99.90;;;;;;6107831;23;20449;-85
2021/06/25 08:57:13;;;;;;;;;;;;;;;;;;;;;
2021/06/25 09:00:23;;;;;;;;;;;;;;;;;;;;;
2021/06/25 09:05:54;;;;;;;2.87;2.40;;;17.90;99.90;;;;;;6093726;23;20413;-85
2021/06/25 09:09:05;;;;;;;;;;;;;;;;;;;;;
2021/06/25 09:12:00;;;;;;;3.33;3.03;;;17.70;99.90;;;;;;6091558;23;20833;-86
2021/06/25 09:15:02;;;;;;;3.70;3.40;;;17.70;99.90;;;;;;6096627;23;20438;-85
2021/06/25 09:21:25;;;;;;;3.70;3.40;;;17.90;99.90;;;;;;6096892;23;20510;-87
2021/06/25 09:23:59;;;;;;;6.50;4.67;;;17.90;99.90;;;;;;6100426;23;20452;-87
2021/06/25 09:26:54;;;;;;;5.57;5.07;;;18.00;99.90;;;;;;6103389;23;20452;-86
2021/06/25 09:29:45;;;;;;;5.20;4.77;;;17.90;99.90;;;;;;6103511;23;20379;-88
2021/06/25 09:35:53;;;;;;;5.93;5.40;;;17.60;99.90;;;;;;6095392;23;20939;-87
2021/06/25 09:45:27;;;;;;;6.83;6.00;;;17.30;99.90;;;;;;6048682;23;20553;-84
2021/06/25 09:48:08;;;;;;;6.40;5.43;;;17.20;99.90;;;;;;6099821;23;20402;-85
2021/06/25 09:54:31;;;;;;;5.03;4.53;;;17.30;99.90;;;;;;6109888;23;20706;-87
2021/06/25 09:57:30;;;;;;;5.47;4.97;;;17.40;99.90;;;;;;6104422;23;20414;-86
2021/06/25 10:00:23;;;;;;;5.60;5.10;;;17.40;99.90;;;;;;6098913;23;20413;-86
2021/06/25 10:06:48;;;;;;;5.57;5.03;;;17.60;99.90;;;;;;6106796;23;20416;-86
2021/06/25 10:12:40;;;;;;;7.07;6.47;;;17.70;99.90;;;;;;6102692;23;20449;-88
2021/06/25 10:15:15;;;;;;;5.93;5.13;;;17.70;99.90;;;;;;6104250;23;20411;-86
2021/06/25 10:23:43;;;;;;;7.20;6.00;;;17.50;99.90;;;;;;6095768;23;20410;-84
2021/06/25 10:29:08;;;;;;;6.70;6.10;;;17.50;99.90;;;;;;6103241;23;20471;-86
2021/06/25 10:31:38;;;;;;;6.73;6.13;;;17.60;99.90;;;;;;6105992;23;20417;-86
2021/06/25 10:34:25;;;;;;;6.83;6.23;;;17.60;99.90;;;;;;6104980;23;20469;-86
2021/06/25 10:39:45;;;;;;;6.30;5.70;;;17.60;99.90;;;;;;6100474;23;20538;-86
2021/06/25 10:42:13;;;;;;;7.40;6.80;;;17.60;99.90;;;;;;6103172;23;20785;-85
2021/06/25 10:45:03;;;;;;;6.77;6.10;;;17.50;99.90;;;;;;6099848;23;20442;-86
2021/06/25 10:47:38;;;;;;;7.77;6.40;;;17.50;99.90;;;;;;6099823;23;20399;-87
2021/06/25 10:50:54;;;;;;;8.37;7.53;;;17.60;99.90;;;;;;6099876;23;20410;-86
2021/06/25 10:54:16;;;;;;;;;;;;;;;;;;;;;
2021/06/25 11:00:55;;;;;;;;;;;;;;;;;;;;;
2021/06/25 11:07:07;;;;;;;;;;;;;;;;;;;;;
2021/06/25 11:12:51;;;;;;;6.20;5.60;;;19.10;99.90;;;;;;6083728;23;20810;-85
2021/06/25 11:15:33;;;;;;;6.57;5.93;;;19.40;99.90;;;;;;6098602;23;20496;-83
2021/06/25 11:18:15;;;;;;;8.47;7.60;;;19.70;99.90;;;;;;6098969;23;20412;-84
2021/06/25 11:20:50;;;;;;;9.63;8.63;;;19.80;99.90;;;;;;6098898;23;20487;-85
2021/06/25 11:23:21;;;;;;;7.57;6.93;;;19.90;99.90;;;;;;6098983;23;20400;-85
2021/06/25 11:25:52;;;;;;;8.70;7.87;;;19.80;99.90;;;;;;6098759;23;20447;-85
2021/06/25 11:28:42;;;;;;;8.13;7.40;;;19.70;99.90;;;;;;6098466;23;20399;-84
2021/06/25 11:31:31;;;;;;;9.93;8.30;;;19.80;99.90;;;;;;6098069;23;20955;-85
2021/06/25 11:34:15;;;;;;;10.97;9.77;;;19.80;99.90;;;;;;6100797;23;20385;-87
2021/06/25 11:36:58;;;;;;;8.17;7.47;;;19.90;99.90;;;;;;6105037;23;20377;-86
2021/06/25 11:39:32;;;;;;;8.20;7.40;;;20.00;99.90;;;;;;6097308;23;20456;-84
2021/06/25 11:42:01;;;;;;;9.90;8.90;;;20.00;99.90;;;;;;6097103;23;20463;-85
2021/06/25 11:44:33;;;;;;;9.70;8.77;;;19.90;99.90;;;;;;6097264;23;20450;-84
2021/06/25 11:47:31;;;;;;;;;;;;;;;;;;;;;
2021/06/25 11:50:14;;;;;;;9.60;8.70;;;19.70;99.90;;;;;;6092798;23;20439;-88
2021/06/25 11:53:08;;;;;;;9.50;8.60;;;19.50;99.90;;;;;;6104429;23;20406;-87
2021/06/25 11:55:43;;;;;;;9.47;8.57;;;19.20;99.90;;;;;;6103428;23;20425;-85
2021/06/25 11:58:29;;;;;;;8.67;7.83;;;19.10;99.90;;;;;;6105438;23;20449;-86
2021/06/25 12:07:06;;;;;;;7.90;7.10;;;19.20;99.90;;;;;;5797313;24;20430;-85
2021/06/25 12:12:34;;;;;;;7.63;6.93;;;19.60;99.90;;;;;;6060345;23;20443;-85
2021/06/25 12:15:11;;;;;;;7.93;7.13;;;19.90;99.90;;;;;;6076170;23;20448;-87
2021/06/25 12:17:48;;;;;;;7.40;6.70;;;20.00;99.90;;;;;;6077271;23;20487;-87
2021/06/25 12:20:24;;;;;;;7.40;6.73;;;20.10;99.90;;;;;;6085110;23;20381;-86
2021/06/25 12:23:23;;;;;;;7.40;6.10;;;20.20;99.90;;;;;;6088097;23;20422;-84
2021/06/25 12:26:18;;;;;;;7.73;7.03;;;20.30;99.90;;;;;;6081041;23;20452;-85
2021/06/25 12:28:57;;;;;;;5.70;5.20;;;20.60;99.90;;;;;;6083660;23;20516;-87
2021/06/25 12:31:31;;;;;;;4.73;4.33;;;21.00;99.90;;;;;;6081639;23;20488;-85
2021/06/25 12:34:11;;;;;;;5.50;5.00;;;21.40;99.90;;;;;;6081050;23;20405;-84
2021/06/25 12:36:39;;;;;;;4.83;4.43;;;21.80;99.90;;;;;;6081585;23;20405;-85
2021/06/25 12:39:13;;;;;;;4.17;3.80;;;22.10;99.90;;;;;;6081746;23;20419;-84
2021/06/25 12:41:54;;;;;;;4.60;4.20;;;22.30;99.90;;;;;;6080804;23;20433;-85
2021/06/25 12:44:40;;;;;;;4.40;4.00;;;22.20;99.90;;;;;;6080323;23;20402;-84
2021/06/25 12:50:54;;;;;;;4.23;3.93;;;21.90;99.90;;;;;;6045077;23;20455;-86
2021/06/25 12:53:27;;;;;;;4.43;4.07;;;22.00;99.90;;;;;;6074954;23;20969;-82
2021/06/25 12:55:55;;;;;;;4.63;4.33;;;22.10;99.90;;;;;;6078153;23;20399;-82
2021/06/25 14:00:36;;;;;;;6.00;5.50;;;19.60;99.90;;;;;;5873872;24;20414;-85
2021/06/25 14:03:06;;;;;;;5.90;5.50;;;19.50;99.90;;;;;;5992589;23;20506;-85
2021/06/25 14:05:34;;;;;;;4.73;4.33;;;19.40;99.90;;;;;;6105295;23;20440;-84
2021/06/25 14:08:04;;;;;;;5.33;4.93;;;19.40;99.90;;;;;;6104649;23;20416;-85
2021/06/25 14:10:32;;;;;;;5.93;5.43;;;19.30;99.90;;;;;;6104598;23;20443;-84
2021/06/25 14:13:00;;;;;;;6.60;6.00;;;19.30;99.90;;;;;;6104935;23;20415;-84
2021/06/25 14:15:48;;;;;;;6.80;5.97;;;19.10;99.90;;;;;;6105928;23;20415;-84
2021/06/25 14:18:17;;;;;;;5.97;5.50;;;19.00;99.90;;;;;;6106329;23;20407;-85
2021/06/25 14:20:44;;;;;;;7.20;6.50;;;18.90;99.90;;;;;;6105870;23;20463;-85
2021/06/25 14:23:11;;;;;;;5.83;5.40;;;18.90;99.90;;;;;;6105759;23;20400;-85
2021/06/25 14:25:38;;;;;;;5.90;5.40;;;18.80;99.90;;;;;;6105450;23;20461;-85
2021/06/25 14:28:05;;;;;;;5.77;5.27;;;18.70;99.90;;;;;;6105776;23;20483;-85
2021/06/25 14:30:32;;;;;;;6.17;5.67;;;18.80;99.90;;;;;;6107039;23;20439;-86
2021/06/25 14:33:00;;;;;;;5.20;4.70;;;18.80;99.90;;;;;;6107460;23;20416;-85
2021/06/25 14:35:27;;;;;;;5.53;5.03;;;18.90;99.90;;;;;;6107942;23;20411;-85
2021/06/25 14:37:54;;;;;;;5.63;5.13;;;19.00;99.90;;;;;;6106711;23;20434;-85
2021/06/25 14:40:21;;;;;;;5.50;5.03;;;19.10;99.90;;;;;;6104931;23;20419;-85
2021/06/25 14:42:47;;;;;;;6.10;5.60;;;19.20;99.90;;;;;;6104665;23;20419;-84
2021/06/25 14:45:15;;;;;;;5.33;4.93;;;19.30;99.90;;;;;;6104648;23;20455;-85
2021/06/25 14:47:42;;;;;;;5.17;4.77;;;19.40;99.90;;;;;;6104585;23;20409;-85
2021/06/25 14:50:12;;;;;;;6.03;5.63;;;19.50;99.90;;;;;;6104366;23;20426;-85
2021/06/25 14:52:39;;;;;;;5.00;4.60;;;19.60;99.90;;;;;;6105163;23;20424;-84
2021/06/25 14:55:06;;;;;;;5.10;4.67;;;19.70;99.90;;;;;;6104648;23;20411;-84
2021/06/25 14:57:33;;;;;;;5.50;5.10;;;19.90;99.90;;;;;;6103984;23;20475;-84
2021/06/25 15:00:00;;;;;;;5.10;4.77;;;20.00;99.90;;;;;;6105031;23;20416;-85
2021/06/25 15:02:27;;;;;;;4.70;4.40;;;20.00;99.90;;;;;;6104375;23;20420;-84
2021/06/25 15:04:53;;;;;;;4.63;4.23;;;20.20;99.90;;;;;;6105214;23;20408;-84
2021/06/25 15:07:24;;;;;;;4.30;4.00;;;20.60;99.90;;;;;;6104972;23;20421;-85
2021/06/25 15:09:51;;;;;;;5.00;4.70;;;20.90;99.90;;;;;;6105487;23;20836;-84
2021/06/25 15:12:18;;;;;;;5.30;4.90;;;21.00;99.90;;;;;;6104031;23;20433;-84
2021/06/25 15:14:45;;;;;;;4.50;4.20;;;21.10;99.90;;;;;;6104639;23;20413;-84
2021/06/25 15:17:11;;;;;;;3.90;3.63;;;20.90;99.90;;;;;;6104308;23;20412;-84
2021/06/25 15:19:38;;;;;;;5.33;4.80;;;20.70;99.90;;;;;;6104921;23;20411;-84
2021/06/25 15:22:05;;;;;;;4.70;4.30;;;20.70;99.90;;;;;;6103839;23;20436;-84
2021/06/25 15:24:36;;;;;;;4.43;4.13;;;20.70;99.90;;;;;;6103871;23;20440;-84
2021/06/25 15:27:03;;;;;;;4.03;3.73;;;20.60;99.90;;;;;;6104014;23;20439;-84
2021/06/25 15:29:29;;;;;;;4.07;3.77;;;20.50;99.90;;;;;;6104123;23;20415;-83
2021/06/25 15:31:57;;;;;;;5.13;4.83;;;20.40;99.90;;;;;;6103835;23;20429;-84
2021/06/25 15:34:24;;;;;;;3.73;3.50;;;20.40;99.90;;;;;;6103997;23;20412;-84
2021/06/25 15:36:51;;;;;;;4.73;4.33;;;20.40;99.90;;;;;;6103998;23;20416;-84
2021/06/25 15:39:18;;;;;;;4.47;4.17;;;20.40;99.90;;;;;;6103635;23;20924;-84
2021/06/25 15:41:47;;;;;;;4.57;4.27;;;20.40;99.90;;;;;;6103854;23;20441;-84
2021/06/25 15:44:16;;;;;;;5.97;5.47;;;20.40;99.90;;;;;;6104410;23;20416;-83
2021/06/25 15:46:42;;;;;;;6.27;5.77;;;20.40;99.90;;;;;;6104160;23;20448;-84
2021/06/25 15:49:09;;;;;;;5.67;5.17;;;20.30;99.90;;;;;;6104969;23;20432;-84
2021/06/25 15:51:36;;;;;;;4.70;4.40;;;20.40;99.90;;;;;;6104757;23;20432;-84
2021/06/25 15:54:04;;;;;;;5.20;4.80;;;20.50;99.90;;;;;;6104177;23;20491;-84
2021/06/25 15:56:31;;;;;;;5.30;4.90;;;20.60;99.90;;;;;;6104406;23;20411;-84
2021/06/25 15:58:59;;;;;;;5.60;5.00;;;20.70;99.90;;;;;;6105144;23;20769;-83
2021/06/25 16:01:26;;;;;;;6.03;5.43;;;20.80;99.90;;;;;;6103956;23;20444;-83
2021/06/25 16:03:53;;;;;;;5.57;5.17;;;20.80;99.90;;;;;;6105071;23;20416;-84
2021/06/25 16:06:19;;;;;;;6.60;6.00;;;20.80;99.90;;;;;;6104864;23;20454;-84
2021/06/25 16:08:51;;;;;;;6.80;6.30;;;20.90;99.90;;;;;;6105448;23;20424;-83
2021/06/25 16:11:22;;;;;;;5.63;5.13;;;20.90;99.90;;;;;;6106580;23;20447;-84
2021/06/25 16:13:50;;;;;;;5.63;5.10;;;20.90;99.90;;;;;;6113462;23;20401;-83
2021/06/25 16:16:18;;;;;;;5.83;5.33;;;20.90;99.90;;;;;;6119408;23;20476;-82
2021/06/25 16:18:45;;;;;;;6.40;5.90;;;21.00;99.90;;;;;;6116453;23;20481;-83
2021/06/25 16:21:12;;;;;;;5.00;4.60;;;21.10;99.90;;;;;;6110856;23;20447;-84
2021/06/25 16:23:39;;;;;;;6.13;5.63;;;21.10;99.90;;;;;;6105304;23;20425;-84
2021/06/25 16:26:06;;;;;;;5.63;5.20;;;21.20;99.90;;;;;;6105729;23;20444;-84
2021/06/25 16:28:33;;;;;;;6.53;6.03;;;21.30;99.90;;;;;;6104884;23;20421;-83
2021/06/25 16:31:00;;;;;;;6.30;5.80;;;21.40;99.90;;;;;;6104650;23;20432;-84
2021/06/25 16:33:28;;;;;;;6.23;5.73;;;21.60;99.90;;;;;;6103898;23;20499;-84
2021/06/25 16:35:55;;;;;;;5.50;5.00;;;21.80;99.90;;;;;;6103834;23;20411;-82
2021/06/25 16:38:21;;;;;;;5.50;5.00;;;22.30;99.90;;;;;;6104450;23;20441;-82
2021/06/25 16:40:48;;;;;;;9.10;5.10;;;23.10;99.90;;;;;;6104130;23;20439;-82
2021/06/25 16:43:15;;;;;;;5.70;5.20;;;23.50;99.90;;;;;;6103288;23;20415;-81
2021/06/25 16:45:42;;;;;;;5.97;5.50;;;23.70;99.90;;;;;;6103804;23;20441;-85
2021/06/25 16:48:09;;;;;;;5.97;5.57;;;24.30;99.90;;;;;;6104491;23;20409;-83
2021/06/25 16:50:37;;;;;;;7.27;5.77;;;25.10;99.90;;;;;;6103644;23;20449;-82
2021/06/25 16:53:04;;;;;;;5.13;4.83;;;26.30;99.90;;;;;;6104303;23;20425;-82
2021/06/25 16:55:31;;;;;;;6.10;5.57;;;27.00;99.90;;;;;;6102520;23;20413;-81
2021/06/25 16:57:57;;;;;;;6.87;6.30;;;27.00;97.30;;;;;;6101840;23;20454;-81
2021/06/25 17:00:24;;;;;;;7.20;6.60;;;26.70;98.00;;;;;;6101304;23;20443;-81
2021/06/25 17:02:51;;;;;;;6.50;6.00;;;26.40;97.20;;;;;;6102151;23;20887;-81
2021/06/25 17:05:18;;;;;;;7.23;6.63;;;26.10;96.80;;;;;;6102149;23;20425;-81
2021/06/25 17:07:46;;;;;;;7.63;6.90;;;25.80;97.80;;;;;;6103430;23;20492;-81
2021/06/25 17:10:14;;;;;;;6.93;6.40;;;25.40;97.20;;;;;;6103212;23;20431;-81
2021/06/25 17:12:41;;;;;;;6.60;6.10;;;25.10;97.90;;;;;;6102804;23;20417;-81
2021/06/25 17:15:09;;;;;;;6.87;6.37;;;24.80;98.80;;;;;;6102693;23;20415;-81
2021/06/25 17:17:36;;;;;;;6.37;5.97;;;24.60;99.90;;;;;;6102884;23;20412;-81
2021/06/25 17:20:03;;;;;;;8.60;7.77;;;25.10;98.70;;;;;;6103549;23;20413;-82
2021/06/25 17:22:34;;;;;;;7.27;6.63;;;26.10;95.80;;;;;;6102354;23;20434;-81
2021/06/25 17:25:03;;;;;;;12.20;11.20;;;27.40;95.90;;;;;;6103540;23;20401;-82
2021/06/25 17:27:30;;;;;;;10.77;9.80;;;28.30;96.40;;;;;;6102500;23;20459;-81
2021/06/25 17:29:57;;;;;;;7.00;6.50;;;28.70;93.20;;;;;;6103436;23;20511;-82
2021/06/25 17:32:24;;;;;;;7.47;6.97;;;29.10;93.50;;;;;;6103208;23;20447;-82
2021/06/25 17:34:51;;;;;;;7.80;7.13;;;28.80;91.70;;;;;;6102918;23;20424;-81
2021/06/25 17:37:17;;;;;;;7.07;6.63;;;28.80;92.20;;;;;;6103425;23;20750;-81
2021/06/25 17:39:44;;;;;;;6.90;6.30;;;28.00;92.50;;;;;;6102553;23;20417;-81
2021/06/25 17:42:12;;;;;;;8.13;7.47;;;27.10;92.70;;;;;;6102596;23;20442;-82
2021/06/25 17:44:39;;;;;;;8.90;8.10;;;26.80;93.60;;;;;;6103556;23;20422;-82
2021/06/25 17:47:06;;;;;;;6.57;6.07;;;26.50;94.60;;;;;;6104310;23;20455;-82
2021/06/25 17:49:33;;;;;;;6.77;6.27;;;26.60;93.20;;;;;;6105283;23;20419;-81
2021/06/25 17:52:00;;;;;;;6.87;6.40;;;26.50;94.40;;;;;;6104239;23;20447;-82
2021/06/25 17:54:27;;;;;;;8.93;8.20;;;26.40;95.80;;;;;;6104585;23;20416;-81
2021/06/25 17:56:53;;;;;;;8.00;7.30;;;26.00;95.80;;;;;;6104926;23;20751;-81
2021/06/25 17:59:22;;;;;;;7.97;7.37;;;25.90;95.90;;;;;;6103762;23;20423;-81
2021/06/25 18:01:48;;;;;;;8.17;7.47;;;25.60;95.90;;;;;;6103977;23;20434;-81
2021/06/25 18:04:15;;;;;;;9.47;8.77;;;25.20;96.30;;;;;;6104425;23;20420;-81
2021/06/25 18:06:42;;;;;;;7.13;6.53;;;25.30;97.10;;;;;;6104523;23;20970;-81
2021/06/25 18:09:08;;;;;;;8.23;7.63;;;25.50;97.30;;;;;;6104100;23;20406;-81
2021/06/25 18:11:35;;;;;;;9.00;8.23;;;25.30;97.60;;;;;;6103975;23;20802;-81
2021/06/25 18:14:02;;;;;;;9.07;8.37;;;24.90;96.80;;;;;;6103864;23;20500;-81
2021/06/25 18:16:30;;;;;;;8.70;7.90;;;24.40;98.00;;;;;;6104108;23;20420;-82
2021/06/25 18:18:57;;;;;;;10.20;8.50;;;24.00;98.00;;;;;;6104272;23;20413;-81
2021/06/25 18:21:24;;;;;;;7.93;7.40;;;23.90;98.00;;;;;;6104144;23;20451;-83
2021/06/25 18:23:50;;;;;;;9.37;8.57;;;23.70;98.40;;;;;;6103892;23;20420;-83
2021/06/25 18:26:17;;;;;;;10.20;9.40;;;23.40;99.90;;;;;;6104114;23;20448;-81
2021/06/25 18:28:44;;;;;;;11.13;10.20;;;23.00;99.90;;;;;;6104206;23;20422;-81
2021/06/25 18:31:12;;;;;;;9.97;9.17;;;22.80;99.90;;;;;;6103442;23;20446;-81
2021/06/25 18:33:40;;;;;;;11.40;10.40;;;22.80;99.90;;;;;;6102697;23;20415;-81
2021/06/25 18:36:07;;;;;;;11.67;10.53;;;22.40;99.90;;;;;;6103088;23;20412;-81
2021/06/25 18:38:33;;;;;;;11.37;10.47;;;22.20;99.90;;;;;;6102683;23;20893;-81
2021/06/25 18:41:00;;;;;;;11.23;10.23;;;22.20;99.90;;;;;;6102160;23;20431;-80
2021/06/25 18:43:27;;;;;;;11.33;10.37;;;22.10;99.90;;;;;;6103056;23;20419;-82
2021/06/25 18:45:54;;;;;;;10.63;9.73;;;21.90;99.90;;;;;;6102586;23;20416;-83
2021/06/25 18:48:22;;;;;;;11.90;10.90;;;21.60;99.90;;;;;;6102987;23;20520;-82
2021/06/25 18:50:50;;;;;;;12.50;11.43;;;21.30;99.90;;;;;;6102029;23;20444;-82
2021/06/25 18:53:16;;;;;;;11.73;10.60;;;21.10;99.90;;;;;;6103697;23;20929;-82
2021/06/25 18:55:49;;;;;;;13.37;12.17;;;20.90;99.90;;;;;;6104585;23;20419;-81
2021/06/25 18:58:16;;;;;;;11.80;10.70;;;20.70;99.90;;;;;;6103952;23;20404;-82
2021/06/25 19:00:44;;;;;;;12.10;11.10;;;20.60;99.90;;;;;;6103615;23;20451;-82
2021/06/25 19:03:16;;;;;;;12.07;11.07;;;20.50;99.90;;;;;;6103199;23;20479;-82
2021/06/25 19:05:46;;;;;;;11.53;10.53;;;20.40;99.90;;;;;;6103274;23;20408;-82
2021/06/25 19:08:16;;;;;;;13.17;11.90;;;20.40;99.90;;;;;;6104019;23;20462;-81
2021/06/25 19:10:43;;;;;;;12.00;10.97;;;20.40;99.90;;;;;;6103296;23;20956;-82
2021/06/25 19:13:10;;;;;;;13.13;11.83;;;20.40;99.90;;;;;;6103683;23;20447;-82
2021/06/25 19:15:44;;;;;;;12.67;11.47;;;20.40;99.90;;;;;;6103509;23;20412;-82
2021/06/25 19:44:04;;;;;;;;;;;;;;;;;;;;;
2021/06/25 19:47:20;;;;;;;;;;;;;;;;;;;;;
2021/06/25 19:50:49;;;;;;;15.70;14.40;;;19.00;99.90;;;;;;6043430;23;20439;-85
2021/06/25 19:53:20;;;;;;;15.00;13.60;;;18.90;99.90;;;;;;6071123;23;20454;-85
2021/06/25 19:55:55;;;;;;;16.97;14.13;;;18.90;99.90;;;;;;6096912;23;20388;-84
2021/06/25 19:59:06;;;;;;;14.70;13.33;;;18.80;99.90;;;;;;6096488;23;20399;-85
2021/06/25 20:01:48;;;;;;;16.53;14.13;;;18.80;99.90;;;;;;6008843;23;20446;-84
2021/06/25 20:11:42;;;;;;;;;;;;;;;;;;;;;
2021/06/25 21:56:52;;;;;;;;;;;;;;;;;;;;;
2021/06/25 22:24:56;;;;;;;12.73;11.60;;;17.40;99.90;;;;;;6054204;23;20407;-85
2021/06/25 22:27:24;;;;;;;14.97;12.50;;;17.30;99.90;;;;;;6211389;23;20947;-85
2021/06/25 22:29:51;;;;;;;13.77;12.47;;;17.30;99.90;;;;;;6248254;22;20467;-85
2021/06/25 22:32:18;;;;;;;14.57;13.27;;;17.20;99.90;;;;;;6321600;22;20508;-85
2021/06/25 22:34:45;;;;;;;14.17;12.80;;;17.20;99.90;;;;;;6318117;22;20405;-85
2021/06/25 22:37:11;;;;;;;13.93;12.17;;;17.20;99.90;;;;;;6314109;22;20403;-85
2021/06/25 22:39:38;;;;;;;13.20;11.80;;;17.20;99.90;;;;;;6314398;22;20402;-85
2021/06/25 22:42:07;;;;;;;14.03;12.63;;;17.20;99.90;;;;;;6313970;22;20427;-85
2021/06/25 22:44:34;;;;;;;15.33;13.73;;;17.20;99.90;;;;;;6314252;22;20466;-85
2021/06/25 22:47:01;;;;;;;13.53;12.30;;;17.20;99.90;;;;;;6313447;22;20416;-85
2021/06/25 22:49:29;;;;;;;14.33;11.97;;;17.20;99.90;;;;;;6313724;22;20395;-85
2021/06/25 22:51:56;;;;;;;12.27;11.07;;;17.20;99.90;;;;;;6313429;22;20427;-85
2021/06/25 22:54:23;;;;;;;11.57;10.47;;;17.20;99.90;;;;;;6314006;22;20447;-85
2021/06/25 22:56:50;;;;;;;12.43;11.13;;;17.20;99.90;;;;;;6313992;22;20398;-85
2021/06/25 22:59:18;;;;;;;12.20;10.53;;;17.20;99.90;;;;;;6313948;22;20407;-85
2021/06/25 23:01:45;;;;;;;12.97;11.30;;;17.20;99.90;;;;;;6314087;22;20434;-85
2021/06/25 23:04:13;;;;;;;16.03;11.40;;;17.20;99.90;;;;;;6313841;22;20454;-85
2021/06/25 23:06:40;;;;;;;13.00;11.70;;;17.20;99.90;;;;;;6313776;22;20412;-86
2021/06/25 23:09:07;;;;;;;13.30;12.10;;;17.30;99.90;;;;;;6313859;22;20411;-85
2021/06/25 23:11:34;;;;;;;12.37;11.10;;;17.30;99.90;;;;;;6313508;22;20449;-86
2021/06/25 23:14:01;;;;;;;15.40;11.40;;;17.30;99.90;;;;;;6313526;22;20411;-85
2021/06/25 23:16:29;;;;;;;12.47;11.20;;;17.30;99.90;;;;;;6313497;22;20395;-85
2021/06/25 23:18:56;;;;;;;11.70;10.60;;;17.40;99.90;;;;;;6314498;22;20482;-85
2021/06/25 23:21:24;;;;;;;12.37;11.27;;;17.40;99.90;;;;;;6313490;22;20439;-85
2021/06/25 23:23:51;;;;;;;14.20;11.27;;;17.40;99.90;;;;;;6314211;22;20950;-85
2021/06/25 23:26:18;;;;;;;14.50;11.67;;;17.40;99.90;;;;;;6313543;22;20411;-85
2021/06/25 23:28:45;;;;;;;11.77;10.60;;;17.40;99.90;;;;;;6314240;22;20434;-85
2021/06/25 23:31:14;;;;;;;12.50;11.37;;;17.30;99.90;;;;;;6313207;22;20435;-85
2021/06/25 23:33:42;;;;;;;12.47;11.27;;;17.30;99.90;;;;;;6313910;22;20403;-85
2021/06/25 23:36:09;;;;;;;13.00;11.60;;;17.30;99.90;;;;;;6313402;22;20413;-85
2021/06/25 23:38:39;;;;;;;13.33;11.50;;;17.40;99.90;;;;;;6313196;22;20434;-85
2021/06/25 23:41:06;;;;;;;13.63;12.30;;;17.40;99.90;;;;;;6313545;22;20433;-85
2021/06/25 23:43:32;;;;;;;13.63;12.33;;;17.40;99.90;;;;;;6313014;22;20439;-85
2021/06/25 23:46:16;;;;;;;;;;;;;;;;;;;;;
